createdAt,value
2023-05-18T00:00:30.680Z,24.06
2023-05-18T00:01:30.755Z,24.05
2023-05-18T00:02:30.901Z,24.05
2023-05-18T00:03:30.983Z,24.06
2023-05-18T00:04:30.999Z,24.06
2023-05-18T00:05:31.244Z,24.06
2023-05-18T00:06:31.098Z,24.06
2023-05-18T00:07:31.179Z,24.05
2023-05-18T00:08:31.238Z,24.05
2023-05-18T00:09:31.318Z,24.05
2023-05-18T00:10:31.412Z,24.05
2023-05-18T00:11:31.448Z,24.05
2023-05-18T00:12:31.533Z,24.05
2023-05-18T00:13:31.531Z,24.05
2023-05-18T00:14:31.534Z,24.05
2023-05-18T00:15:31.739Z,24.05
2023-05-18T00:16:31.542Z,24.04
2023-05-18T00:17:31.552Z,24.04
2023-05-18T00:18:31.537Z,24.05
2023-05-18T00:19:31.594Z,24.04
2023-05-18T00:20:31.516Z,24.05
2023-05-18T00:21:31.541Z,24.04
2023-05-18T00:22:31.616Z,24.04
2023-05-18T00:23:31.675Z,24.05
2023-05-18T00:24:31.744Z,24.04
2023-05-18T00:25:31.964Z,24.04
2023-05-18T00:26:31.867Z,24.04
2023-05-18T00:27:31.931Z,24.04
2023-05-18T00:28:32.002Z,24.03
2023-05-18T00:29:32.071Z,24.03
2023-05-18T00:30:32.129Z,24.03
2023-05-18T00:31:32.239Z,24.04
2023-05-18T00:32:32.255Z,24.03
2023-05-18T00:33:32.311Z,24.04
2023-05-18T00:34:32.384Z,24.03
2023-05-18T00:35:32.600Z,24.03
2023-05-18T00:36:32.493Z,24.03
2023-05-18T00:37:32.565Z,24.03
2023-05-18T00:38:32.644Z,24.03
2023-05-18T00:39:32.722Z,24.03
2023-05-18T00:40:32.771Z,24.03
2023-05-18T00:41:32.869Z,24.03
2023-05-18T00:42:32.905Z,24.03
2023-05-18T00:43:32.943Z,24.02
2023-05-18T00:44:33.025Z,24.03
2023-05-18T00:45:33.397Z,24.03
2023-05-18T00:46:33.286Z,24.03
2023-05-18T00:47:33.209Z,24.03
2023-05-18T00:48:33.266Z,24.02
2023-05-18T00:49:33.300Z,24.02
2023-05-18T00:50:33.344Z,24.03
2023-05-18T00:51:33.388Z,24.02
2023-05-18T00:52:33.454Z,24.03
2023-05-18T00:53:33.515Z,24.02
2023-05-18T00:54:33.586Z,24.02
2023-05-18T00:55:33.851Z,24.02
2023-05-18T00:56:33.708Z,24.02
2023-05-18T00:57:33.782Z,24.02
2023-05-18T00:58:33.860Z,24.02
2023-05-18T00:59:33.929Z,24.02
2023-05-18T01:00:34.023Z,24.02
2023-05-18T01:01:34.142Z,24.02
2023-05-18T01:02:34.147Z,24.02
2023-05-18T01:03:34.215Z,24.02
2023-05-18T01:04:34.250Z,24.01
2023-05-18T01:05:34.307Z,24.01
2023-05-18T01:06:34.378Z,24.01
2023-05-18T01:07:34.453Z,24.01
2023-05-18T01:08:34.515Z,24.01
2023-05-18T01:09:34.587Z,24.01
2023-05-18T01:10:34.650Z,24.00
2023-05-18T01:11:34.774Z,24.00
2023-05-18T01:12:34.773Z,24.00
2023-05-18T01:13:34.843Z,24.01
2023-05-18T01:14:34.884Z,24.01
2023-05-18T01:15:34.936Z,24.01
2023-05-18T01:16:35.008Z,24.00
2023-05-18T01:17:35.059Z,24.00
2023-05-18T01:18:35.157Z,24.00
2023-05-18T01:19:35.156Z,24.01
2023-05-18T01:20:35.221Z,24.00
2023-05-18T01:21:35.291Z,24.00
2023-05-18T01:22:35.362Z,24.01
2023-05-18T01:23:35.429Z,24.01
2023-05-18T01:24:35.479Z,24.01
2023-05-18T01:25:35.547Z,24.00
2023-05-18T01:26:35.608Z,24.00
2023-05-18T01:27:35.680Z,24.01
2023-05-18T01:28:35.724Z,24.00
2023-05-18T01:29:35.792Z,24.01
2023-05-18T01:30:35.839Z,24.00
2023-05-18T01:31:36.006Z,23.99
2023-05-18T01:32:35.989Z,24.00
2023-05-18T01:33:36.007Z,24.00
2023-05-18T01:34:36.069Z,24.00
2023-05-18T01:35:36.132Z,24.00
2023-05-18T01:36:36.133Z,24.00
2023-05-18T01:37:36.176Z,23.99
2023-05-18T01:38:36.245Z,23.99
2023-05-18T01:39:36.293Z,23.99
2023-05-18T01:40:36.355Z,23.99
2023-05-18T01:41:36.393Z,23.99
2023-05-18T01:42:36.446Z,23.99
2023-05-18T01:43:36.503Z,23.99
2023-05-18T01:44:36.524Z,23.99
2023-05-18T01:45:36.588Z,23.99
2023-05-18T01:46:36.676Z,23.98
2023-05-18T01:47:36.749Z,23.99
2023-05-18T01:48:36.744Z,23.99
2023-05-18T01:49:36.816Z,23.98
2023-05-18T01:50:36.872Z,23.99
2023-05-18T01:51:36.947Z,23.99
2023-05-18T01:52:37.006Z,23.99
2023-05-18T01:53:37.015Z,23.99
2023-05-18T01:54:37.067Z,23.98
2023-05-18T01:55:37.123Z,23.98
2023-05-18T01:56:37.165Z,23.99
2023-05-18T01:57:37.238Z,23.98
2023-05-18T01:58:37.271Z,23.98
2023-05-18T01:59:37.346Z,23.98
2023-05-18T02:00:37.397Z,23.98
2023-05-18T02:01:37.468Z,23.98
2023-05-18T02:02:37.569Z,23.98
2023-05-18T02:03:37.634Z,23.98
2023-05-18T02:04:37.584Z,23.98
2023-05-18T02:05:37.649Z,23.98
2023-05-18T02:06:37.689Z,23.98
2023-05-18T02:07:37.759Z,23.98
2023-05-18T02:08:37.801Z,23.97
2023-05-18T02:09:37.860Z,23.98
2023-05-18T02:10:37.896Z,23.98
2023-05-18T02:11:37.946Z,23.98
2023-05-18T02:12:37.942Z,23.97
2023-05-18T02:13:37.948Z,23.98
2023-05-18T02:14:37.931Z,23.97
2023-05-18T02:15:37.917Z,23.97
2023-05-18T02:16:37.969Z,23.97
2023-05-18T02:17:37.947Z,23.98
2023-05-18T02:18:37.948Z,23.98
2023-05-18T02:19:37.924Z,23.97
2023-05-18T02:20:37.914Z,23.97
2023-05-18T02:21:37.948Z,23.98
2023-05-18T02:22:37.982Z,23.97
2023-05-18T02:23:37.972Z,23.97
2023-05-18T02:24:37.985Z,23.97
2023-05-18T02:25:37.990Z,23.97
2023-05-18T02:26:37.997Z,23.97
2023-05-18T02:27:38.053Z,23.97
2023-05-18T02:28:38.097Z,23.97
2023-05-18T02:29:38.136Z,23.97
2023-05-18T02:30:38.143Z,23.97
2023-05-18T02:31:38.208Z,23.97
2023-05-18T02:32:38.255Z,23.96
2023-05-18T02:33:38.200Z,23.96
2023-05-18T02:34:38.256Z,23.96
2023-05-18T02:35:38.278Z,23.96
2023-05-18T02:36:38.340Z,23.96
2023-05-18T02:37:38.391Z,23.96
2023-05-18T02:38:38.462Z,23.96
2023-05-18T02:39:38.529Z,23.96
2023-05-18T02:40:38.594Z,23.96
2023-05-18T02:41:38.681Z,23.96
2023-05-18T02:42:38.737Z,23.96
2023-05-18T02:43:38.769Z,23.96
2023-05-18T02:44:38.834Z,23.96
2023-05-18T02:45:38.894Z,23.95
2023-05-18T02:46:38.932Z,23.95
2023-05-18T02:47:38.998Z,23.96
2023-05-18T02:48:39.088Z,23.95
2023-05-18T02:49:39.123Z,23.96
2023-05-18T02:50:39.191Z,23.95
2023-05-18T02:51:39.225Z,23.95
2023-05-18T02:52:39.267Z,23.96
2023-05-18T02:53:39.328Z,23.96
2023-05-18T02:54:39.396Z,23.96
2023-05-18T02:55:39.440Z,23.96
2023-05-18T02:56:39.508Z,23.96
2023-05-18T02:57:39.587Z,23.95
2023-05-18T02:58:39.657Z,23.95
2023-05-18T02:59:39.729Z,23.95
2023-05-18T03:00:39.784Z,23.95
2023-05-18T03:01:39.983Z,23.95
2023-05-18T03:02:40.010Z,23.93
2023-05-18T03:03:40.024Z,23.92
2023-05-18T03:04:40.066Z,23.92
2023-05-18T03:05:40.142Z,23.91
2023-05-18T03:06:40.196Z,23.91
2023-05-18T03:07:40.206Z,23.89
2023-05-18T03:08:40.254Z,23.88
2023-05-18T03:09:40.321Z,23.85
2023-05-18T03:10:40.326Z,23.82
2023-05-18T03:11:40.362Z,23.80
2023-05-18T03:12:40.405Z,23.78
2023-05-18T03:13:40.464Z,23.77
2023-05-18T03:14:40.483Z,23.75
2023-05-18T03:15:40.551Z,23.72
2023-05-18T03:16:40.600Z,23.70
2023-05-18T03:17:40.558Z,23.66
2023-05-18T03:18:40.587Z,23.66
2023-05-18T03:19:40.550Z,23.63
2023-05-18T03:20:40.544Z,23.61
2023-05-18T03:21:40.547Z,23.60
2023-05-18T03:22:40.545Z,23.58
2023-05-18T03:23:40.567Z,23.57
2023-05-18T03:24:40.770Z,23.56
2023-05-18T03:25:40.550Z,23.53
2023-05-18T03:26:40.564Z,23.52
2023-05-18T03:27:40.553Z,23.50
2023-05-18T03:28:40.560Z,23.49
2023-05-18T03:29:40.568Z,23.47
2023-05-18T03:30:40.565Z,23.46
2023-05-18T03:31:40.594Z,23.45
2023-05-18T03:32:40.668Z,23.42
2023-05-18T03:33:40.587Z,23.41
2023-05-18T03:34:40.597Z,23.40
2023-05-18T03:35:40.594Z,23.38
2023-05-18T03:36:40.592Z,23.38
2023-05-18T03:37:40.624Z,23.36
2023-05-18T03:38:40.659Z,23.35
2023-05-18T03:39:40.676Z,23.35
2023-05-18T03:40:40.708Z,23.34
2023-05-18T03:41:40.738Z,23.32
2023-05-18T03:42:40.772Z,23.31
2023-05-18T03:43:40.801Z,23.30
2023-05-18T03:44:40.846Z,23.29
2023-05-18T03:45:40.862Z,23.27
2023-05-18T03:46:40.904Z,23.26
2023-05-18T03:47:40.962Z,23.25
2023-05-18T03:48:41.070Z,23.24
2023-05-18T03:49:41.014Z,23.22
2023-05-18T03:50:41.045Z,23.21
2023-05-18T03:51:41.086Z,23.21
2023-05-18T03:52:41.128Z,23.18
2023-05-18T03:53:41.165Z,23.19
2023-05-18T03:54:41.230Z,23.17
2023-05-18T03:55:41.255Z,23.17
2023-05-18T03:56:41.310Z,23.17
2023-05-18T03:57:41.342Z,23.16
2023-05-18T03:58:41.403Z,23.14
2023-05-18T03:59:41.448Z,23.13
2023-05-18T04:00:41.499Z,23.12
2023-05-18T04:01:41.604Z,23.09
2023-05-18T04:02:41.660Z,23.07
2023-05-18T04:03:41.790Z,23.07
2023-05-18T04:04:41.720Z,23.07
2023-05-18T04:05:41.762Z,23.07
2023-05-18T04:06:41.819Z,23.05
2023-05-18T04:07:41.862Z,23.04
2023-05-18T04:08:41.927Z,23.05
2023-05-18T04:09:41.982Z,23.05
2023-05-18T04:10:42.048Z,23.05
2023-05-18T04:11:42.094Z,23.04
2023-05-18T04:12:42.154Z,23.03
2023-05-18T04:13:42.227Z,23.02
2023-05-18T04:14:42.314Z,23.02
2023-05-18T04:15:42.259Z,23.01
2023-05-18T04:16:42.273Z,23.01
2023-05-18T04:17:42.275Z,23.00
2023-05-18T04:18:42.332Z,22.99
2023-05-18T04:19:42.233Z,22.98
2023-05-18T04:20:42.277Z,22.99
2023-05-18T04:21:42.231Z,22.96
2023-05-18T04:22:42.241Z,22.96
2023-05-18T04:23:42.277Z,22.95
2023-05-18T04:24:42.306Z,22.95
2023-05-18T04:25:42.376Z,22.94
2023-05-18T04:26:42.437Z,22.92
2023-05-18T04:27:42.502Z,22.91
2023-05-18T04:28:42.571Z,22.90
2023-05-18T04:29:42.635Z,22.90
2023-05-18T04:30:42.717Z,22.89
2023-05-18T04:31:42.854Z,22.88
2023-05-18T04:32:43.270Z,22.87
2023-05-18T04:33:42.924Z,22.87
2023-05-18T04:34:43.002Z,22.86
2023-05-18T04:35:43.065Z,22.86
2023-05-18T04:36:43.135Z,22.84
2023-05-18T04:37:43.367Z,22.84
2023-05-18T04:38:43.277Z,22.84
2023-05-18T04:39:43.351Z,22.84
2023-05-18T04:40:43.439Z,22.84
2023-05-18T04:41:43.484Z,22.83
2023-05-18T04:42:43.516Z,22.83
2023-05-18T04:43:43.593Z,22.83
2023-05-18T04:44:43.666Z,22.82
2023-05-18T04:45:43.773Z,22.83
2023-05-18T04:46:43.778Z,22.83
2023-05-18T04:47:43.840Z,22.82
2023-05-18T04:48:43.908Z,22.81
2023-05-18T04:49:43.977Z,22.82
2023-05-18T04:50:43.984Z,22.81
2023-05-18T04:51:43.982Z,22.80
2023-05-18T04:52:43.981Z,22.81
2023-05-18T04:53:43.989Z,22.80
2023-05-18T04:54:43.991Z,22.78
2023-05-18T04:55:43.996Z,22.78
2023-05-18T04:56:44.001Z,22.78
2023-05-18T04:57:44.064Z,22.77
2023-05-18T04:58:44.044Z,22.77
2023-05-18T04:59:44.088Z,22.77
2023-05-18T05:00:44.113Z,22.75
2023-05-18T05:01:44.232Z,22.75
2023-05-18T05:02:44.395Z,22.75
2023-05-18T05:03:44.485Z,22.75
2023-05-18T05:04:44.289Z,22.75
2023-05-18T05:05:44.327Z,22.74
2023-05-18T05:06:44.365Z,22.75
2023-05-18T05:07:44.391Z,22.74
2023-05-18T05:08:44.430Z,22.74
2023-05-18T05:09:44.479Z,22.75
2023-05-18T05:10:44.516Z,22.74
2023-05-18T05:11:44.562Z,22.74
2023-05-18T05:12:44.637Z,22.73
2023-05-18T05:13:44.709Z,22.73
2023-05-18T05:14:44.828Z,22.72
2023-05-18T05:15:44.860Z,22.71
2023-05-18T05:16:44.916Z,22.71
2023-05-18T05:17:44.989Z,22.71
2023-05-18T05:18:47.197Z,22.71
2023-05-18T05:19:45.036Z,22.71
2023-05-18T05:20:45.024Z,22.71
2023-05-18T05:21:45.025Z,22.71
2023-05-18T05:22:45.115Z,22.72
2023-05-18T05:23:45.055Z,22.72
2023-05-18T05:24:45.116Z,22.72
2023-05-18T05:25:45.065Z,22.71
2023-05-18T05:26:45.070Z,22.71
2023-05-18T05:27:45.092Z,22.71
2023-05-18T05:28:45.108Z,22.71
2023-05-18T05:29:45.188Z,22.71
2023-05-18T05:30:45.232Z,22.71
2023-05-18T05:31:45.305Z,22.71
2023-05-18T05:32:45.368Z,22.71
2023-05-18T05:33:45.366Z,22.71
2023-05-18T05:34:45.391Z,22.71
2023-05-18T05:35:45.329Z,22.70
2023-05-18T05:36:45.386Z,22.71
2023-05-18T05:37:45.402Z,22.71
2023-05-18T05:38:45.386Z,22.69
2023-05-18T05:39:45.391Z,22.68
2023-05-18T05:40:45.422Z,22.68
2023-05-18T05:41:45.403Z,22.68
2023-05-18T05:42:45.428Z,22.68
2023-05-18T05:43:45.494Z,22.67
2023-05-18T05:44:45.545Z,22.67
2023-05-18T05:45:45.616Z,22.66
2023-05-18T05:46:45.697Z,22.66
2023-05-18T05:47:45.784Z,22.66
2023-05-18T05:48:45.794Z,22.67
2023-05-18T05:49:45.829Z,22.66
2023-05-18T05:50:45.905Z,22.67
2023-05-18T05:51:45.930Z,22.66
2023-05-18T05:52:45.988Z,22.66
2023-05-18T05:53:46.031Z,22.66
2023-05-18T05:54:46.075Z,22.66
2023-05-18T05:55:46.135Z,22.66
2023-05-18T05:56:46.204Z,22.66
2023-05-18T05:57:46.272Z,22.66
2023-05-18T05:58:46.328Z,22.66
2023-05-18T05:59:46.389Z,22.66
2023-05-18T06:00:46.427Z,22.66
2023-05-18T06:01:46.514Z,22.66
2023-05-18T06:02:46.564Z,22.65
2023-05-18T06:03:46.614Z,22.65
2023-05-18T06:04:46.638Z,22.65
2023-05-18T06:05:46.694Z,22.65
2023-05-18T06:06:46.751Z,22.65
2023-05-18T06:07:46.820Z,22.65
2023-05-18T06:08:46.875Z,22.65
2023-05-18T06:09:46.919Z,22.64
2023-05-18T06:10:46.955Z,22.64
2023-05-18T06:11:46.990Z,22.64
2023-05-18T06:12:47.023Z,22.64
2023-05-18T06:13:47.060Z,22.65
2023-05-18T06:14:47.125Z,22.64
2023-05-18T06:15:47.170Z,22.65
2023-05-18T06:16:47.258Z,22.64
2023-05-18T06:17:47.363Z,22.65
2023-05-18T06:18:47.311Z,22.65
2023-05-18T06:19:47.353Z,22.65
2023-05-18T06:20:47.432Z,22.64
2023-05-18T06:21:47.432Z,22.64
2023-05-18T06:22:47.479Z,22.64
2023-05-18T06:23:47.537Z,22.64
2023-05-18T06:24:47.565Z,22.64
2023-05-18T06:25:47.578Z,22.64
2023-05-18T06:26:47.622Z,22.65
2023-05-18T06:27:47.630Z,22.65
2023-05-18T06:28:47.661Z,22.65
2023-05-18T06:29:47.664Z,22.65
2023-05-18T06:30:47.677Z,22.65
2023-05-18T06:31:47.719Z,22.65
2023-05-18T06:32:47.719Z,22.65
2023-05-18T06:33:47.726Z,22.66
2023-05-18T06:34:47.783Z,22.65
2023-05-18T06:35:47.825Z,22.66
2023-05-18T06:36:47.851Z,22.66
2023-05-18T06:37:47.891Z,22.65
2023-05-18T06:38:47.934Z,22.66
2023-05-18T06:39:47.985Z,22.66
2023-05-18T06:40:48.022Z,22.66
2023-05-18T06:41:48.061Z,22.66
2023-05-18T06:42:48.129Z,22.66
2023-05-18T06:43:48.164Z,22.67
2023-05-18T06:44:48.205Z,22.67
2023-05-18T06:45:48.273Z,22.66
2023-05-18T06:46:48.275Z,22.67
2023-05-18T06:47:48.323Z,22.67
2023-05-18T06:48:48.368Z,22.67
2023-05-18T06:49:48.395Z,22.67
2023-05-18T06:50:48.442Z,22.66
2023-05-18T06:51:48.484Z,22.66
2023-05-18T06:52:48.508Z,22.66
2023-05-18T06:53:48.560Z,22.65
2023-05-18T06:54:48.595Z,22.65
2023-05-18T06:55:48.657Z,22.66
2023-05-18T06:56:48.668Z,22.66
2023-05-18T06:57:48.705Z,22.66
2023-05-18T06:58:48.761Z,22.66
2023-05-18T06:59:48.809Z,22.66
2023-05-18T07:00:48.810Z,22.67
2023-05-18T07:01:48.901Z,22.68
2023-05-18T07:02:48.955Z,22.68
2023-05-18T07:03:49.004Z,22.67
2023-05-18T07:04:49.033Z,22.68
2023-05-18T07:05:49.078Z,22.69
2023-05-18T07:06:49.138Z,22.68
2023-05-18T07:07:49.268Z,22.67
2023-05-18T07:08:49.242Z,22.67
2023-05-18T07:09:49.308Z,22.68
2023-05-18T07:10:49.339Z,22.68
2023-05-18T07:11:49.412Z,22.69
2023-05-18T07:12:49.452Z,22.69
2023-05-18T07:13:49.476Z,22.69
2023-05-18T07:14:49.521Z,22.69
2023-05-18T07:15:49.590Z,22.70
2023-05-18T07:16:49.589Z,22.71
2023-05-18T07:17:49.639Z,22.71
2023-05-18T07:18:49.708Z,22.73
2023-05-18T07:19:49.711Z,22.74
2023-05-18T07:20:49.772Z,22.74
2023-05-18T07:21:49.861Z,22.74
2023-05-18T07:22:49.870Z,22.74
2023-05-18T07:23:49.935Z,22.75
2023-05-18T07:24:49.982Z,22.75
2023-05-18T07:25:50.011Z,22.75
2023-05-18T07:26:50.062Z,22.75
2023-05-18T07:27:50.119Z,22.75
2023-05-18T07:28:50.182Z,22.75
2023-05-18T07:29:50.256Z,22.75
2023-05-18T07:30:50.349Z,22.74
2023-05-18T07:31:50.428Z,22.75
2023-05-18T07:32:50.463Z,22.75
2023-05-18T07:33:50.485Z,22.74
2023-05-18T07:34:50.488Z,22.74
2023-05-18T07:35:50.487Z,22.74
2023-05-18T07:36:50.505Z,22.74
2023-05-18T07:37:50.494Z,22.74
2023-05-18T07:38:51.124Z,22.75
2023-05-18T07:39:50.516Z,22.74
2023-05-18T07:40:50.515Z,22.74
2023-05-18T07:41:50.535Z,22.74
2023-05-18T07:42:50.513Z,22.73
2023-05-18T07:43:50.536Z,22.75
2023-05-18T07:44:50.572Z,22.75
2023-05-18T07:45:50.632Z,22.75
2023-05-18T07:46:50.771Z,22.74
2023-05-18T07:47:50.813Z,22.76
2023-05-18T07:48:50.868Z,22.75
2023-05-18T07:49:50.952Z,22.75
2023-05-18T07:50:51.043Z,22.76
2023-05-18T07:51:51.092Z,22.74
2023-05-18T07:52:51.053Z,22.74
2023-05-18T07:53:51.064Z,22.75
2023-05-18T07:54:51.070Z,22.75
2023-05-18T07:55:51.084Z,22.76
2023-05-18T07:56:51.081Z,22.75
2023-05-18T07:57:51.085Z,22.74
2023-05-18T07:58:51.107Z,22.74
2023-05-18T07:59:51.117Z,22.74
2023-05-18T08:00:51.179Z,22.75
2023-05-18T08:01:51.235Z,22.74
2023-05-18T08:02:51.406Z,22.75
2023-05-18T08:03:51.421Z,22.75
2023-05-18T08:04:51.388Z,22.74
2023-05-18T08:05:51.437Z,22.75
2023-05-18T08:06:51.460Z,22.75
2023-05-18T08:07:51.532Z,22.75
2023-05-18T08:08:51.530Z,22.74
2023-05-18T08:09:51.632Z,22.75
2023-05-18T08:10:51.687Z,22.75
2023-05-18T08:11:51.730Z,22.75
2023-05-18T08:12:51.774Z,22.75
2023-05-18T08:13:51.844Z,22.76
2023-05-18T08:14:51.846Z,22.77
2023-05-18T08:16:03.163Z,22.77
2023-05-18T08:16:53.115Z,22.76
2023-05-18T08:17:51.910Z,22.77
2023-05-18T08:18:51.908Z,22.77
2023-05-18T08:19:51.854Z,22.77
2023-05-18T08:20:51.857Z,22.77
2023-05-18T08:21:51.907Z,22.77
2023-05-18T08:22:51.856Z,22.78
2023-05-18T08:23:51.867Z,22.78
2023-05-18T08:24:51.852Z,22.79
2023-05-18T08:25:51.899Z,22.79
2023-05-18T08:26:51.957Z,22.79
2023-05-18T08:27:51.993Z,22.79
2023-05-18T08:28:52.076Z,22.79
2023-05-18T08:29:52.138Z,22.80
2023-05-18T08:30:52.208Z,22.80
2023-05-18T08:31:52.361Z,22.80
2023-05-18T08:32:52.335Z,22.79
2023-05-18T08:33:52.381Z,22.80
2023-05-18T08:34:52.455Z,22.80
2023-05-18T08:35:52.500Z,22.81
2023-05-18T08:36:52.547Z,22.81
2023-05-18T08:37:52.598Z,22.81
2023-05-18T08:38:52.665Z,22.82
2023-05-18T08:39:52.735Z,22.82
2023-05-18T08:40:52.792Z,22.83
2023-05-18T08:41:52.866Z,22.83
2023-05-18T08:42:52.936Z,22.83
2023-05-18T08:43:53.007Z,22.84
2023-05-18T08:44:53.180Z,22.84
2023-05-18T08:45:53.155Z,22.83
2023-05-18T08:46:53.191Z,22.84
2023-05-18T08:47:53.319Z,22.84
2023-05-18T08:48:53.535Z,22.84
2023-05-18T08:49:53.414Z,22.84
2023-05-18T08:50:53.461Z,22.84
2023-05-18T08:51:53.538Z,22.84
2023-05-18T08:52:53.610Z,22.85
2023-05-18T08:53:53.699Z,22.85
2023-05-18T08:54:53.753Z,22.86
2023-05-18T08:55:53.814Z,22.85
2023-05-18T08:56:53.896Z,22.85
2023-05-18T08:57:53.956Z,22.85
2023-05-18T08:58:54.021Z,22.85
2023-05-18T08:59:54.120Z,22.86
2023-05-18T09:00:54.179Z,22.85
2023-05-18T09:01:54.290Z,22.86
2023-05-18T09:02:54.358Z,22.87
2023-05-18T09:03:54.322Z,22.86
2023-05-18T09:04:54.353Z,22.87
2023-05-18T09:05:54.350Z,22.89
2023-05-18T09:06:54.345Z,22.91
2023-05-18T09:07:54.363Z,22.92
2023-05-18T09:08:54.349Z,22.94
2023-05-18T09:09:54.371Z,22.96
2023-05-18T09:10:54.374Z,22.98
2023-05-18T09:11:54.409Z,23.00
2023-05-18T09:12:54.393Z,23.04
2023-05-18T09:13:54.486Z,23.07
2023-05-18T09:14:54.496Z,23.08
2023-05-18T09:15:54.577Z,23.11
2023-05-18T09:16:54.631Z,23.13
2023-05-18T09:17:54.721Z,23.15
2023-05-18T09:18:54.763Z,23.17
2023-05-18T09:19:54.811Z,23.20
2023-05-18T09:20:54.884Z,23.22
2023-05-18T09:21:54.938Z,23.25
2023-05-18T09:22:54.967Z,23.27
2023-05-18T09:23:55.036Z,23.29
2023-05-18T09:24:55.066Z,23.30
2023-05-18T09:25:55.149Z,23.32
2023-05-18T09:26:55.149Z,23.33
2023-05-18T09:27:55.209Z,23.34
2023-05-18T09:28:55.246Z,23.35
2023-05-18T09:29:55.311Z,23.37
2023-05-18T09:30:55.347Z,23.39
2023-05-18T09:31:55.466Z,23.41
2023-05-18T09:32:55.514Z,23.41
2023-05-18T09:33:55.469Z,23.43
2023-05-18T09:34:55.490Z,23.44
2023-05-18T09:35:55.532Z,23.45
2023-05-18T09:36:55.559Z,23.47
2023-05-18T09:37:55.603Z,23.48
2023-05-18T09:38:55.635Z,23.50
2023-05-18T09:39:55.665Z,23.51
2023-05-18T09:40:55.704Z,23.53
2023-05-18T09:41:55.732Z,23.54
2023-05-18T09:42:55.752Z,23.57
2023-05-18T09:43:55.803Z,23.57
2023-05-18T09:44:55.851Z,23.59
2023-05-18T09:45:55.843Z,23.61
2023-05-18T09:46:55.886Z,23.62
2023-05-18T09:47:55.909Z,23.64
2023-05-18T09:48:55.896Z,23.65
2023-05-18T09:49:55.925Z,23.67
2023-05-18T09:50:55.966Z,23.68
2023-05-18T09:51:55.935Z,23.69
2023-05-18T09:52:55.936Z,23.71
2023-05-18T09:53:55.938Z,23.72
2023-05-18T09:54:55.928Z,23.73
2023-05-18T09:55:55.942Z,23.75
2023-05-18T09:57:08.881Z,23.75
2023-05-18T09:57:56.926Z,23.76
2023-05-18T09:58:55.930Z,23.78
2023-05-18T09:59:55.927Z,23.80
2023-05-18T10:00:55.966Z,23.81
2023-05-18T10:01:55.966Z,23.83
2023-05-18T10:02:55.960Z,23.84
2023-05-18T10:03:55.969Z,23.86
2023-05-18T10:04:55.951Z,23.88
2023-05-18T10:05:55.962Z,23.89
2023-05-18T10:06:55.925Z,23.89
2023-05-18T10:07:55.921Z,23.90
2023-05-18T10:08:55.919Z,23.89
2023-05-18T10:09:55.924Z,23.90
2023-05-18T10:10:55.927Z,23.91
2023-05-18T10:11:55.933Z,23.92
2023-05-18T10:12:55.910Z,23.94
2023-05-18T10:13:55.979Z,23.96
2023-05-18T10:14:55.913Z,23.97
2023-05-18T10:15:55.950Z,23.97
2023-05-18T10:17:07.217Z,23.98
2023-05-18T10:17:56.987Z,23.99
2023-05-18T10:18:56.023Z,24.01
2023-05-18T10:19:55.953Z,24.02
2023-05-18T10:20:57.252Z,24.04
2023-05-18T10:21:56.119Z,24.03
2023-05-18T10:22:56.130Z,24.03
2023-05-18T10:23:56.168Z,24.06
2023-05-18T10:24:56.208Z,24.07
2023-05-18T10:25:56.268Z,24.08
2023-05-18T10:26:57.665Z,24.09
2023-05-18T10:27:56.304Z,24.09
2023-05-18T10:28:56.302Z,24.10
2023-05-18T10:29:56.311Z,24.11
2023-05-18T10:30:56.339Z,24.11
2023-05-18T10:31:56.308Z,24.12
2023-05-18T10:32:56.370Z,24.12
2023-05-18T10:33:56.315Z,24.12
2023-05-18T10:34:56.342Z,24.13
2023-05-18T10:35:56.348Z,24.14
2023-05-18T10:36:56.394Z,24.15
2023-05-18T10:37:56.459Z,24.17
2023-05-18T10:38:56.529Z,24.18
2023-05-18T10:39:56.602Z,24.19
2023-05-18T10:40:56.675Z,24.20
2023-05-18T10:41:56.747Z,24.21
2023-05-18T10:42:56.825Z,24.22
2023-05-18T10:43:56.879Z,24.23
2023-05-18T10:44:56.941Z,24.24
2023-05-18T10:45:57.886Z,24.25
2023-05-18T10:46:57.129Z,24.25
2023-05-18T10:47:57.256Z,24.25
2023-05-18T10:48:57.193Z,24.26
2023-05-18T10:49:57.294Z,24.28
2023-05-18T10:50:57.325Z,24.28
2023-05-18T10:51:57.377Z,24.30
2023-05-18T10:52:57.442Z,24.30
2023-05-18T10:53:57.509Z,24.32
2023-05-18T10:54:57.569Z,24.32
2023-05-18T10:55:57.634Z,24.33
2023-05-18T10:56:57.681Z,24.34
2023-05-18T10:57:57.731Z,24.34
2023-05-18T10:58:57.794Z,24.35
2023-05-18T10:59:57.854Z,24.36
2023-05-18T11:00:57.999Z,24.37
2023-05-18T11:01:58.022Z,24.37
2023-05-18T11:02:58.065Z,24.38
2023-05-18T11:03:58.074Z,24.38
2023-05-18T11:04:58.211Z,24.40
2023-05-18T11:05:58.291Z,24.41
2023-05-18T11:06:58.246Z,24.41
2023-05-18T11:07:58.311Z,24.42
2023-05-18T11:08:58.352Z,24.43
2023-05-18T11:09:58.409Z,24.44
2023-05-18T11:10:58.461Z,24.44
2023-05-18T11:11:58.502Z,24.45
2023-05-18T11:12:58.558Z,24.45
2023-05-18T11:13:58.599Z,24.45
2023-05-18T11:14:58.662Z,24.46
2023-05-18T11:15:58.747Z,24.47
2023-05-18T11:16:58.789Z,24.47
2023-05-18T11:17:58.848Z,24.49
2023-05-18T11:18:58.854Z,24.49
2023-05-18T11:19:58.879Z,24.48
2023-05-18T11:20:58.936Z,24.49
2023-05-18T11:21:58.975Z,24.50
2023-05-18T11:22:59.032Z,24.52
2023-05-18T11:23:59.043Z,24.52
2023-05-18T11:24:59.097Z,24.52
2023-05-18T11:25:59.125Z,24.53
2023-05-18T11:26:59.173Z,24.54
2023-05-18T11:27:59.203Z,24.54
2023-05-18T11:28:59.230Z,24.55
2023-05-18T11:30:14.074Z,24.57
2023-05-18T11:30:59.273Z,24.57
2023-05-18T11:31:59.298Z,24.58
2023-05-18T11:32:59.397Z,24.58
2023-05-18T11:33:59.355Z,24.58
2023-05-18T11:34:59.252Z,24.59
2023-05-18T11:35:59.236Z,24.60
2023-05-18T11:36:59.278Z,24.61
2023-05-18T11:37:59.198Z,24.61
2023-05-18T11:38:59.199Z,24.61
2023-05-18T11:40:01.246Z,24.62
2023-05-18T11:40:59.184Z,24.62
2023-05-18T11:41:59.182Z,24.62
2023-05-18T11:42:59.193Z,24.62
2023-05-18T11:43:59.162Z,24.63
2023-05-18T11:44:59.171Z,24.64
2023-05-18T11:45:59.605Z,24.65
2023-05-18T11:46:59.172Z,24.65
2023-05-18T11:47:59.243Z,24.64
2023-05-18T11:48:59.141Z,24.66
2023-05-18T11:49:59.127Z,24.67
2023-05-18T11:50:59.196Z,24.68
2023-05-18T11:51:59.239Z,24.67
2023-05-18T11:52:59.120Z,24.68
2023-05-18T11:53:59.061Z,24.68
2023-05-18T11:54:59.074Z,24.68
2023-05-18T11:55:59.056Z,24.68
2023-05-18T11:56:59.052Z,24.69
2023-05-18T11:57:59.036Z,24.69
2023-05-18T11:58:59.017Z,24.69
2023-05-18T11:59:59.004Z,24.70
2023-05-18T12:00:59.010Z,24.70
2023-05-18T12:01:59.022Z,24.71
2023-05-18T12:02:59.103Z,24.71
2023-05-18T12:03:59.047Z,24.70
2023-05-18T12:04:58.978Z,24.70
2023-05-18T12:05:58.972Z,24.71
2023-05-18T12:06:58.949Z,24.71
2023-05-18T12:07:58.937Z,24.71
2023-05-18T12:08:59.299Z,24.72
2023-05-18T12:09:58.918Z,24.72
2023-05-18T12:10:58.908Z,24.71
2023-05-18T12:11:58.895Z,24.72
2023-05-18T12:12:58.908Z,24.71
2023-05-18T12:13:58.889Z,24.72
2023-05-18T12:14:58.896Z,24.72
2023-05-18T12:15:59.255Z,24.72
2023-05-18T12:16:58.911Z,24.72
2023-05-18T12:17:58.948Z,24.73
2023-05-18T12:18:58.887Z,24.73
2023-05-18T12:19:58.887Z,24.73
2023-05-18T12:20:58.832Z,24.72
2023-05-18T12:21:59.139Z,24.73
2023-05-18T12:22:58.837Z,24.73
2023-05-18T12:23:58.814Z,24.74
2023-05-18T12:24:58.798Z,24.74
2023-05-18T12:25:58.802Z,24.74
2023-05-18T12:26:58.789Z,24.74
2023-05-18T12:27:58.777Z,24.75
2023-05-18T12:28:58.812Z,24.75
2023-05-18T12:29:58.754Z,24.76
2023-05-18T12:30:58.759Z,24.76
2023-05-18T12:31:58.747Z,24.75
2023-05-18T12:32:58.849Z,24.75
2023-05-18T12:33:59.455Z,24.75
2023-05-18T12:34:58.712Z,24.76
2023-05-18T12:35:58.716Z,24.76
2023-05-18T12:36:58.706Z,24.77
2023-05-18T12:37:58.690Z,24.77
2023-05-18T12:38:58.684Z,24.78
2023-05-18T12:39:58.686Z,24.78
2023-05-18T12:40:58.698Z,24.78
2023-05-18T12:41:58.672Z,24.79
2023-05-18T12:42:58.656Z,24.79
2023-05-18T12:43:58.660Z,24.79
2023-05-18T12:44:58.646Z,24.79
2023-05-18T12:45:58.689Z,24.79
2023-05-18T12:46:58.706Z,24.80
2023-05-18T12:47:58.743Z,24.80
2023-05-18T12:48:58.708Z,24.81
2023-05-18T12:49:58.702Z,24.80
2023-05-18T12:50:58.738Z,24.81
2023-05-18T12:51:58.741Z,24.81
2023-05-18T12:52:58.766Z,24.82